createdAt,value
2019-03-17T00:01:43.874Z,84.31
2019-03-17T00:03:47.607Z,84.30
2019-03-17T00:05:51.314Z,84.35
2019-03-17T00:07:55.119Z,84.35
2019-03-17T00:09:58.812Z,84.36
2019-03-17T00:12:02.587Z,84.40
2019-03-17T00:14:06.314Z,84.42
2019-03-17T00:16:10.076Z,84.41
2019-03-17T00:18:13.836Z,84.55
2019-03-17T00:20:17.532Z,85.03
2019-03-17T00:22:21.244Z,85.53
2019-03-17T00:24:25.112Z,86.12
2019-03-17T00:26:28.877Z,85.98
2019-03-17T00:28:32.711Z,85.82
2019-03-17T00:30:36.485Z,85.69
2019-03-17T00:32:40.207Z,85.59
2019-03-17T00:34:44.683Z,85.46
2019-03-17T00:36:48.350Z,85.33
2019-03-17T00:38:52.107Z,85.35
2019-03-17T00:40:55.828Z,85.41
2019-03-17T00:42:59.610Z,85.30
2019-03-17T00:45:03.538Z,85.32
2019-03-17T00:47:07.234Z,85.32
2019-03-17T00:49:10.974Z,85.25
2019-03-17T00:51:14.688Z,85.24
2019-03-17T00:53:18.393Z,85.15
2019-03-17T00:55:22.138Z,85.09
2019-03-17T00:57:25.836Z,85.07
2019-03-17T00:59:29.562Z,84.97
2019-03-17T01:01:33.259Z,85.04
2019-03-17T01:03:37.046Z,85.00
2019-03-17T01:05:40.774Z,84.82
2019-03-17T01:07:44.469Z,84.77
2019-03-17T01:09:48.315Z,84.74
2019-03-17T01:11:52.020Z,84.69
2019-03-17T01:13:55.758Z,84.62
2019-03-17T01:15:59.464Z,84.59
2019-03-17T01:18:03.499Z,84.52
2019-03-17T01:20:07.566Z,84.49
2019-03-17T01:22:11.327Z,84.47
2019-03-17T01:24:15.009Z,84.47
2019-03-17T01:26:18.705Z,84.40
2019-03-17T01:28:22.426Z,84.39
2019-03-17T01:30:26.269Z,84.30
2019-03-17T01:32:29.965Z,84.26
2019-03-17T01:34:33.711Z,84.21
2019-03-17T01:36:37.419Z,84.14
2019-03-17T01:38:41.117Z,84.13
2019-03-17T01:40:45.167Z,84.15
2019-03-17T01:42:48.912Z,84.18
2019-03-17T01:44:52.718Z,84.12
2019-03-17T01:46:56.419Z,84.15
2019-03-17T01:49:00.138Z,84.19
2019-03-17T01:51:04.047Z,84.21
2019-03-17T01:53:07.800Z,84.11
2019-03-17T01:55:11.581Z,84.00
2019-03-17T01:57:15.312Z,83.90
2019-03-17T01:59:19.089Z,83.83
2019-03-17T02:01:22.791Z,83.76
2019-03-17T02:03:26.518Z,83.76
2019-03-17T02:05:30.221Z,83.78
2019-03-17T02:07:33.952Z,83.71
2019-03-17T02:09:37.654Z,83.67
2019-03-17T02:11:41.366Z,83.68
2019-03-17T02:13:45.130Z,83.77
2019-03-17T02:15:48.839Z,83.89
2019-03-17T02:17:52.725Z,83.97
2019-03-17T02:19:56.421Z,84.01
2019-03-17T02:22:00.193Z,84.09
2019-03-17T02:24:04.106Z,84.13
2019-03-17T02:26:07.946Z,84.18
2019-03-17T02:28:11.675Z,84.17
2019-03-17T02:30:15.892Z,84.13
2019-03-17T02:32:19.579Z,84.13
2019-03-17T02:34:23.321Z,84.08
2019-03-17T02:36:27.018Z,84.08
2019-03-17T02:38:30.927Z,84.22
2019-03-17T02:40:34.658Z,84.25
2019-03-17T02:42:38.369Z,84.29
2019-03-17T02:44:42.089Z,84.30
2019-03-17T02:46:45.825Z,84.35
2019-03-17T02:48:49.554Z,84.44
2019-03-17T02:50:53.334Z,84.47
2019-03-17T02:52:57.038Z,84.56
2019-03-17T02:55:00.774Z,84.57
2019-03-17T02:57:04.556Z,84.59
2019-03-17T02:59:08.285Z,84.59
2019-03-17T03:01:12.027Z,84.59
2019-03-17T03:03:15.750Z,84.64
2019-03-17T03:05:19.535Z,84.65
2019-03-17T03:07:23.250Z,84.68
2019-03-17T03:09:27.072Z,84.90
2019-03-17T03:11:30.808Z,84.97
2019-03-17T03:13:34.539Z,85.08
2019-03-17T03:15:38.247Z,85.17
2019-03-17T03:17:42.039Z,85.15
2019-03-17T03:19:45.771Z,85.09
2019-03-17T03:21:49.480Z,85.19
2019-03-17T03:23:53.223Z,85.20
2019-03-17T03:25:56.935Z,85.17
2019-03-17T03:28:00.639Z,85.16
2019-03-17T03:30:04.916Z,84.98
2019-03-17T03:32:08.650Z,84.81
2019-03-17T03:34:12.388Z,84.61
2019-03-17T03:36:16.085Z,84.54
2019-03-17T03:38:19.796Z,84.49
2019-03-17T03:40:23.625Z,84.52
2019-03-17T03:42:27.317Z,84.44
2019-03-17T03:44:31.044Z,84.36
2019-03-17T03:46:34.767Z,84.17
2019-03-17T03:48:38.612Z,84.00
2019-03-17T03:50:42.415Z,83.78
2019-03-17T03:52:46.195Z,83.58
2019-03-17T03:54:49.933Z,83.39
2019-03-17T03:56:53.717Z,83.17
2019-03-17T03:58:57.515Z,82.99
2019-03-17T04:01:01.236Z,82.82
2019-03-17T04:03:04.935Z,82.61
2019-03-17T04:05:08.800Z,82.55
2019-03-17T04:07:12.520Z,82.45
2019-03-17T04:09:16.239Z,82.35
2019-03-17T04:11:19.953Z,82.34
2019-03-17T04:13:23.669Z,82.30
2019-03-17T04:15:27.429Z,82.25
2019-03-17T04:17:31.213Z,82.21
2019-03-17T04:19:34.941Z,82.19
2019-03-17T04:21:38.683Z,82.18
2019-03-17T04:23:42.394Z,82.22
2019-03-17T04:25:46.138Z,82.18
2019-03-17T04:27:49.847Z,82.10
2019-03-17T04:29:53.579Z,82.20
2019-03-17T04:31:57.280Z,82.16
2019-03-17T04:34:00.997Z,82.01
2019-03-17T04:36:05.010Z,81.75
2019-03-17T04:38:08.831Z,81.57
2019-03-17T04:40:12.647Z,81.41
2019-03-17T04:42:16.363Z,81.37
2019-03-17T04:44:21.218Z,81.39
2019-03-17T04:46:24.971Z,81.40
2019-03-17T04:48:28.679Z,81.49
2019-03-17T04:50:32.549Z,81.55
2019-03-17T04:52:36.233Z,81.47
2019-03-17T04:54:39.951Z,81.44
2019-03-17T04:56:43.659Z,81.33
2019-03-17T04:58:47.369Z,81.20
2019-03-17T05:00:51.100Z,81.20
2019-03-17T05:02:54.956Z,81.25
2019-03-17T05:04:58.701Z,81.32
2019-03-17T05:07:02.514Z,81.42
2019-03-17T05:09:07.528Z,81.53
2019-03-17T05:11:11.287Z,81.58
2019-03-17T05:13:14.997Z,81.47
2019-03-17T05:15:18.723Z,81.14
2019-03-17T05:17:22.459Z,80.94
2019-03-17T05:19:26.170Z,80.72
2019-03-17T05:21:30.005Z,80.62
2019-03-17T05:23:33.723Z,80.31
2019-03-17T05:25:37.575Z,79.96
2019-03-17T05:27:41.295Z,79.76
2019-03-17T05:29:45.001Z,79.51
2019-03-17T05:31:48.847Z,79.31
2019-03-17T05:33:52.544Z,79.29
2019-03-17T05:35:56.281Z,79.17
2019-03-17T05:37:59.982Z,79.06
2019-03-17T05:40:03.701Z,78.89
2019-03-17T05:42:07.442Z,78.72
2019-03-17T05:44:11.232Z,78.70
2019-03-17T05:46:15.071Z,78.81
2019-03-17T05:48:18.773Z,78.75
2019-03-17T05:50:22.549Z,78.66
2019-03-17T05:52:26.265Z,78.62
2019-03-17T05:54:29.973Z,78.45
2019-03-17T05:56:33.713Z,78.00
2019-03-17T05:58:37.426Z,77.96
2019-03-17T06:00:41.272Z,77.62
2019-03-17T06:02:44.979Z,77.27
2019-03-17T06:04:48.686Z,77.14
2019-03-17T06:06:52.427Z,76.78
2019-03-17T06:08:56.121Z,75.98
2019-03-17T06:10:59.982Z,75.50
2019-03-17T06:13:03.759Z,74.59
2019-03-17T06:15:08.465Z,74.40
2019-03-17T06:17:12.195Z,74.02
2019-03-17T06:19:15.891Z,73.56
2019-03-17T06:21:19.623Z,73.44
2019-03-17T06:23:23.359Z,73.34
2019-03-17T06:25:27.098Z,73.32
2019-03-17T06:27:30.799Z,72.11
2019-03-17T06:29:34.515Z,71.66
2019-03-17T06:31:38.499Z,70.96
2019-03-17T06:33:42.203Z,71.05
2019-03-17T06:35:45.923Z,70.41
2019-03-17T06:37:49.624Z,69.68
2019-03-17T06:39:53.325Z,69.95
2019-03-17T06:41:57.159Z,69.45
2019-03-17T06:44:00.873Z,67.66
2019-03-17T06:46:04.671Z,65.89
2019-03-17T06:48:08.375Z,64.57
2019-03-17T06:50:12.262Z,61.84
2019-03-17T06:52:16.004Z,57.73
2019-03-17T06:54:19.712Z,55.63
2019-03-17T06:56:23.466Z,52.39
2019-03-17T06:58:27.188Z,51.63
2019-03-17T07:00:30.909Z,54.04
2019-03-17T07:02:34.640Z,56.21
2019-03-17T07:04:38.377Z,56.22
2019-03-17T07:06:42.217Z,56.16
2019-03-17T07:08:45.929Z,55.94
2019-03-17T07:10:49.851Z,55.30
2019-03-17T07:12:53.568Z,55.22
2019-03-17T07:14:57.288Z,55.71
2019-03-17T07:17:01.029Z,55.54
2019-03-17T07:19:04.827Z,56.13
2019-03-17T07:21:08.815Z,54.42
2019-03-17T07:23:12.524Z,54.18
2019-03-17T07:25:16.237Z,55.01
2019-03-17T07:27:20.068Z,53.85
2019-03-17T07:29:23.848Z,52.19
2019-03-17T07:31:27.588Z,49.51
2019-03-17T07:33:31.324Z,49.92
2019-03-17T07:35:35.094Z,50.71
2019-03-17T07:37:38.848Z,51.58
2019-03-17T07:39:42.549Z,52.72
2019-03-17T07:41:46.389Z,53.18
2019-03-17T07:43:50.088Z,51.95
2019-03-17T07:45:53.804Z,50.82
2019-03-17T07:47:57.540Z,50.00
2019-03-17T07:50:01.388Z,47.80
2019-03-17T07:52:05.301Z,43.91
2019-03-17T07:54:08.996Z,41.93
2019-03-17T07:56:12.698Z,40.63
2019-03-17T07:58:16.426Z,39.54
2019-03-17T08:00:31.235Z,40.72
2019-03-17T08:02:26.011Z,41.53
2019-03-17T08:04:41.648Z,42.23
2019-03-17T08:06:35.387Z,41.99
2019-03-17T08:08:39.191Z,43.74
2019-03-17T08:10:42.955Z,45.18
2019-03-17T08:12:46.687Z,45.26
2019-03-17T08:14:50.397Z,45.87
2019-03-17T08:16:54.199Z,45.91
2019-03-17T08:18:57.913Z,46.40
2019-03-17T08:21:01.624Z,47.18
2019-03-17T08:23:05.470Z,46.80
2019-03-17T08:25:09.367Z,45.78
2019-03-17T08:27:13.170Z,45.60
2019-03-17T08:29:16.867Z,44.44
2019-03-17T08:31:20.589Z,43.60
2019-03-17T08:33:24.334Z,43.23
2019-03-17T08:35:28.052Z,43.46
2019-03-17T08:37:31.792Z,43.09
2019-03-17T08:39:35.496Z,42.30
2019-03-17T08:41:39.196Z,41.03
2019-03-17T08:43:53.813Z,39.27
2019-03-17T08:45:48.457Z,38.50
2019-03-17T08:47:57.734Z,36.48
2019-03-17T08:49:57.832Z,36.37
2019-03-17T08:52:01.689Z,35.43
2019-03-17T08:54:05.480Z,33.75
2019-03-17T08:56:09.194Z,32.95
2019-03-17T08:58:12.937Z,32.79
2019-03-17T09:00:18.538Z,31.35
2019-03-17T09:02:22.955Z,30.34
2019-03-17T09:04:26.677Z,30.38
2019-03-17T09:06:30.392Z,30.86
2019-03-17T09:08:35.574Z,30.75
2019-03-17T09:10:39.382Z,30.40
2019-03-17T09:12:43.372Z,30.27
2019-03-17T09:14:47.105Z,30.67
2019-03-17T09:16:50.824Z,30.96
2019-03-17T09:18:54.576Z,30.51
2019-03-17T09:20:58.285Z,30.83
2019-03-17T09:23:02.036Z,31.10
2019-03-17T09:25:06.104Z,30.77
2019-03-17T09:27:09.815Z,30.98
2019-03-17T09:29:13.565Z,30.94
2019-03-17T09:31:17.443Z,30.28
2019-03-17T09:33:21.392Z,30.56
2019-03-17T09:35:25.215Z,30.19
2019-03-17T09:37:28.928Z,29.81
2019-03-17T09:39:32.657Z,29.33
2019-03-17T09:41:36.397Z,28.17
2019-03-17T09:43:40.145Z,28.86
2019-03-17T09:45:43.926Z,29.12
2019-03-17T09:47:47.685Z,28.50
2019-03-17T09:49:51.499Z,28.32
2019-03-17T09:51:55.286Z,28.16
2019-03-17T09:53:59.030Z,27.50
2019-03-17T09:56:02.743Z,27.96
2019-03-17T09:58:06.470Z,26.53
2019-03-17T10:00:11.899Z,26.66
2019-03-17T10:02:15.622Z,26.78
2019-03-17T10:04:19.551Z,26.87
2019-03-17T10:06:23.305Z,26.74
2019-03-17T10:08:27.045Z,26.31
2019-03-17T10:10:30.758Z,25.64
2019-03-17T10:12:34.474Z,25.48
2019-03-17T10:14:38.315Z,25.06
2019-03-17T10:16:42.026Z,24.28
2019-03-17T10:18:45.784Z,24.49
2019-03-17T10:20:49.511Z,24.77
2019-03-17T10:22:53.238Z,24.22
2019-03-17T10:24:56.993Z,24.42
2019-03-17T10:27:00.705Z,23.72
2019-03-17T10:29:04.562Z,23.99
2019-03-17T10:31:08.261Z,23.66
2019-03-17T10:33:11.987Z,23.79
2019-03-17T10:35:15.798Z,24.55
2019-03-17T10:37:19.517Z,23.90
2019-03-17T10:39:23.307Z,22.74
2019-03-17T10:41:27.028Z,23.63
2019-03-17T10:43:30.779Z,23.64
2019-03-17T10:45:34.505Z,23.79
2019-03-17T10:47:38.271Z,23.25
2019-03-17T10:49:42.109Z,23.12
2019-03-17T10:51:45.833Z,22.31
2019-03-17T10:53:49.580Z,22.57
2019-03-17T10:55:53.467Z,23.04
2019-03-17T10:57:57.177Z,22.82
2019-03-17T11:00:00.930Z,23.41
2019-03-17T11:02:04.825Z,23.21
2019-03-17T11:04:08.580Z,23.14
2019-03-17T11:06:12.325Z,23.09
2019-03-17T11:08:16.079Z,23.38
2019-03-17T11:10:19.768Z,23.42
2019-03-17T11:12:23.504Z,24.02
2019-03-17T11:14:27.345Z,24.22
2019-03-17T11:16:31.068Z,25.01
2019-03-17T11:18:34.799Z,25.99
2019-03-17T11:20:38.689Z,26.09
2019-03-17T11:22:42.548Z,26.09
2019-03-17T11:24:46.321Z,26.47
2019-03-17T11:26:50.024Z,27.29
2019-03-17T11:28:53.783Z,28.02
2019-03-17T11:30:59.253Z,28.62
2019-03-17T11:33:02.985Z,28.81
2019-03-17T11:35:07.003Z,28.87
2019-03-17T11:37:10.729Z,28.88
2019-03-17T11:39:14.477Z,28.73
2019-03-17T11:41:18.180Z,29.10
2019-03-17T11:43:22.123Z,29.44
2019-03-17T11:45:25.941Z,29.68
2019-03-17T11:47:29.738Z,29.87
2019-03-17T11:49:33.585Z,29.21
2019-03-17T11:51:37.293Z,28.65
2019-03-17T11:53:41.008Z,28.08
2019-03-17T11:55:44.747Z,27.76
2019-03-17T11:57:48.603Z,27.49
2019-03-17T11:59:52.475Z,27.12
2019-03-17T12:01:56.192Z,27.45
2019-03-17T12:03:59.899Z,27.32
2019-03-17T12:06:03.811Z,27.58
2019-03-17T12:08:07.660Z,28.21
2019-03-17T12:10:12.705Z,28.28
2019-03-17T12:12:16.423Z,28.59
2019-03-17T12:14:20.142Z,29.19
2019-03-17T12:16:23.876Z,29.40
2019-03-17T12:18:27.675Z,30.67
2019-03-17T12:20:31.566Z,30.67
2019-03-17T12:22:35.341Z,30.92
2019-03-17T12:24:39.162Z,31.41
2019-03-17T12:26:43.019Z,31.41
2019-03-17T12:28:46.793Z,30.60
2019-03-17T12:30:50.531Z,29.64
2019-03-17T12:32:54.910Z,29.21
2019-03-17T12:34:58.625Z,28.58
2019-03-17T12:37:02.468Z,28.54
2019-03-17T12:39:07.236Z,27.38
2019-03-17T12:41:10.995Z,27.71
2019-03-17T12:43:14.706Z,28.36
2019-03-17T12:45:18.522Z,28.92
2019-03-17T12:47:22.232Z,28.81
2019-03-17T12:49:25.948Z,28.86
2019-03-17T12:51:29.784Z,28.83
2019-03-17T12:53:33.488Z,29.63
2019-03-17T12:55:37.249Z,30.56
2019-03-17T12:57:41.055Z,30.69
2019-03-17T12:59:44.783Z,30.96
2019-03-17T13:01:48.525Z,31.25
2019-03-17T13:03:52.251Z,31.63
2019-03-17T13:05:56.033Z,32.29
2019-03-17T13:07:59.778Z,32.80
2019-03-17T13:10:14.988Z,33.37
2019-03-17T13:12:09.477Z,33.63
2019-03-17T13:14:13.194Z,34.06
2019-03-17T13:16:16.977Z,34.61
2019-03-17T13:18:20.681Z,35.12
2019-03-17T13:20:24.411Z,35.85
2019-03-17T13:22:28.257Z,36.53
2019-03-17T13:24:31.964Z,36.97
2019-03-17T13:26:35.788Z,37.44
2019-03-17T13:28:39.519Z,37.82
2019-03-17T13:30:43.235Z,38.21
2019-03-17T13:32:47.333Z,38.86
2019-03-17T13:34:51.033Z,39.15
2019-03-17T13:36:54.764Z,39.32
2019-03-17T13:38:58.464Z,39.51
2019-03-17T13:41:02.308Z,39.58
2019-03-17T13:43:06.080Z,39.70
2019-03-17T13:45:10.498Z,39.98
2019-03-17T13:47:14.405Z,40.26
2019-03-17T13:49:18.109Z,40.58
2019-03-17T13:51:21.948Z,41.13
2019-03-17T13:53:25.653Z,41.88
2019-03-17T13:55:29.357Z,42.29
2019-03-17T13:57:33.190Z,42.27
2019-03-17T13:59:36.911Z,42.47
2019-03-17T14:01:40.760Z,42.65
2019-03-17T14:03:44.473Z,42.93
2019-03-17T14:05:48.398Z,43.05
2019-03-17T14:07:52.326Z,43.16
2019-03-17T14:09:56.098Z,43.37
2019-03-17T14:11:59.916Z,43.56
2019-03-17T14:14:03.635Z,44.03
2019-03-17T14:16:07.463Z,44.40
2019-03-17T14:18:11.194Z,44.70
2019-03-17T14:20:16.370Z,44.82
2019-03-17T14:22:20.105Z,45.33
2019-03-17T14:24:23.820Z,45.69
2019-03-17T14:26:27.546Z,45.91
2019-03-17T14:28:31.266Z,45.81
2019-03-17T14:30:34.980Z,46.29
2019-03-17T14:32:38.725Z,47.47
2019-03-17T14:34:42.422Z,47.47
2019-03-17T14:36:46.468Z,47.78
2019-03-17T14:38:50.216Z,48.66
2019-03-17T14:40:57.085Z,49.35
2019-03-17T14:42:59.558Z,50.25
2019-03-17T14:45:03.350Z,51.18
2019-03-17T14:47:07.096Z,51.71
2019-03-17T14:49:10.804Z,52.43
2019-03-17T14:51:14.607Z,53.21
2019-03-17T14:53:18.426Z,54.06
2019-03-17T14:55:22.208Z,54.30
2019-03-17T14:57:26.043Z,54.48
2019-03-17T14:59:29.762Z,54.48
2019-03-17T15:01:33.588Z,54.66
2019-03-17T15:03:37.316Z,54.86
2019-03-17T15:05:41.036Z,55.02
2019-03-17T15:07:44.855Z,55.36
2019-03-17T15:09:48.568Z,55.59
2019-03-17T15:11:52.387Z,56.03
2019-03-17T15:13:56.094Z,56.16
2019-03-17T15:16:03.145Z,56.54
2019-03-17T15:18:05.318Z,56.70
2019-03-17T15:20:11.019Z,56.96
2019-03-17T15:22:14.780Z,57.29
2019-03-17T15:24:18.524Z,57.70
2019-03-17T15:26:22.213Z,58.45
2019-03-17T15:28:25.955Z,58.81
2019-03-17T15:30:29.962Z,58.95
2019-03-17T15:32:33.645Z,58.91
2019-03-17T15:34:37.379Z,58.31
2019-03-17T15:36:41.085Z,57.56
2019-03-17T15:38:44.866Z,57.40
2019-03-17T15:40:48.642Z,57.52
2019-03-17T15:42:52.558Z,57.57
2019-03-17T15:44:56.275Z,57.45
2019-03-17T15:46:59.968Z,57.51
2019-03-17T15:49:03.701Z,57.83
2019-03-17T15:51:19.211Z,58.27
2019-03-17T15:53:12.927Z,58.28
2019-03-17T15:55:16.759Z,58.00
2019-03-17T15:57:20.644Z,58.19
2019-03-17T15:59:24.335Z,58.17
2019-03-17T16:01:28.111Z,58.17
2019-03-17T16:03:31.844Z,57.51
2019-03-17T16:05:35.547Z,57.68
2019-03-17T16:07:42.563Z,58.14
2019-03-17T16:09:44.936Z,58.04
2019-03-17T16:11:48.642Z,58.09
2019-03-17T16:13:52.476Z,58.75
2019-03-17T16:15:56.191Z,59.14
2019-03-17T16:18:00.030Z,59.88
2019-03-17T16:20:04.406Z,60.48
2019-03-17T16:22:08.117Z,61.15
2019-03-17T16:24:11.962Z,62.28
2019-03-17T16:26:15.663Z,63.14
2019-03-17T16:28:19.508Z,63.91
2019-03-17T16:30:23.611Z,64.18
2019-03-17T16:32:27.358Z,64.80
2019-03-17T16:34:31.139Z,65.24
2019-03-17T16:36:34.848Z,64.98
2019-03-17T16:38:38.762Z,65.04
2019-03-17T16:40:42.471Z,65.61
2019-03-17T16:42:46.219Z,65.51
2019-03-17T16:44:49.970Z,65.33
2019-03-17T16:46:53.679Z,65.00
2019-03-17T16:48:57.409Z,64.37
2019-03-17T16:51:01.129Z,64.18
2019-03-17T16:53:04.996Z,63.96
2019-03-17T16:55:11.386Z,63.90
2019-03-17T16:57:14.585Z,63.96
2019-03-17T16:59:18.338Z,63.80
2019-03-17T17:01:22.034Z,63.77
2019-03-17T17:03:25.867Z,63.97
2019-03-17T17:05:29.659Z,64.25
2019-03-17T17:07:33.469Z,64.25
2019-03-17T17:09:37.164Z,64.28
2019-03-17T17:11:40.909Z,64.38
2019-03-17T17:13:44.648Z,64.40
2019-03-17T17:15:48.353Z,64.17
2019-03-17T17:17:52.147Z,64.27
2019-03-17T17:19:55.854Z,64.51
2019-03-17T17:21:59.577Z,64.32
2019-03-17T17:24:03.415Z,64.51
2019-03-17T17:26:07.100Z,64.58
2019-03-17T17:28:10.852Z,64.68
2019-03-17T17:30:16.038Z,64.81
2019-03-17T17:32:19.743Z,64.78
2019-03-17T17:34:23.484Z,64.60
2019-03-17T17:36:27.192Z,64.62
2019-03-17T17:38:30.942Z,64.51
2019-03-17T17:40:34.638Z,64.30
2019-03-17T17:42:38.325Z,64.21
2019-03-17T17:44:42.123Z,64.04
2019-03-17T17:46:45.861Z,63.72
2019-03-17T17:48:49.876Z,63.67
2019-03-17T17:50:53.598Z,63.71
2019-03-17T17:52:57.381Z,63.86
2019-03-17T17:55:01.219Z,63.91
2019-03-17T17:57:05.108Z,64.03
2019-03-17T17:59:08.854Z,64.18
2019-03-17T18:01:12.559Z,64.34
2019-03-17T18:03:16.261Z,64.65
2019-03-17T18:05:19.983Z,64.89
2019-03-17T18:07:23.692Z,65.41
2019-03-17T18:09:27.543Z,65.36
2019-03-17T18:11:31.238Z,65.69
2019-03-17T18:13:35.063Z,65.89
2019-03-17T18:15:38.768Z,65.89
2019-03-17T18:17:42.466Z,65.95
2019-03-17T18:19:46.448Z,66.02
2019-03-17T18:21:50.161Z,66.10
2019-03-17T18:23:53.936Z,66.16
2019-03-17T18:25:57.637Z,66.52
2019-03-17T18:28:01.379Z,66.64
2019-03-17T18:30:06.399Z,66.97
2019-03-17T18:32:10.157Z,67.11
2019-03-17T18:34:13.878Z,67.11
2019-03-17T18:36:17.641Z,66.98
2019-03-17T18:38:21.521Z,66.96
2019-03-17T18:40:25.285Z,66.95
2019-03-17T18:42:33.345Z,67.10
2019-03-17T18:44:34.524Z,67.34
2019-03-17T18:46:38.253Z,67.24
2019-03-17T18:48:42.078Z,67.28
2019-03-17T18:50:45.886Z,67.23
2019-03-17T18:52:49.611Z,67.31
2019-03-17T18:54:53.342Z,67.17
2019-03-17T18:56:57.048Z,67.12
2019-03-17T18:59:00.915Z,67.34
2019-03-17T19:01:04.622Z,67.41
2019-03-17T19:03:08.449Z,67.53
2019-03-17T19:05:12.466Z,67.64
2019-03-17T19:07:16.181Z,67.80
2019-03-17T19:09:20.028Z,67.92
2019-03-17T19:11:23.820Z,68.04
2019-03-17T19:13:27.558Z,68.09
2019-03-17T19:15:31.256Z,68.03
2019-03-17T19:17:35.021Z,68.06
2019-03-17T19:19:38.754Z,68.01
2019-03-17T19:21:42.479Z,68.05
2019-03-17T19:23:46.302Z,67.92
2019-03-17T19:25:50.086Z,67.93
2019-03-17T19:27:53.868Z,68.10
2019-03-17T19:29:57.587Z,68.06
2019-03-17T19:32:01.315Z,67.89
2019-03-17T19:34:05.191Z,68.05
2019-03-17T19:36:08.986Z,68.13
2019-03-17T19:38:12.690Z,68.09
2019-03-17T19:40:16.545Z,68.18
2019-03-17T19:42:20.256Z,68.20
2019-03-17T19:44:23.997Z,68.16
2019-03-17T19:46:27.712Z,68.36
2019-03-17T19:48:31.448Z,68.23
2019-03-17T19:50:35.144Z,68.48
2019-03-17T19:52:38.869Z,68.68
2019-03-17T19:54:42.659Z,68.77
2019-03-17T19:56:46.397Z,68.73
2019-03-17T19:58:50.127Z,69.03
2019-03-17T20:00:53.838Z,69.14
2019-03-17T20:02:57.629Z,69.21
2019-03-17T20:05:01.376Z,69.14
2019-03-17T20:07:05.157Z,69.25
2019-03-17T20:09:08.913Z,69.21
2019-03-17T20:11:12.607Z,69.24
2019-03-17T20:13:16.326Z,69.22
2019-03-17T20:15:20.111Z,69.41
2019-03-17T20:17:23.818Z,69.48
2019-03-17T20:19:28.502Z,69.55
2019-03-17T20:21:32.216Z,69.50
2019-03-17T20:23:35.923Z,69.60
2019-03-17T20:25:39.675Z,69.72
2019-03-17T20:27:43.459Z,69.74
2019-03-17T20:29:47.202Z,69.76
2019-03-17T20:31:51.036Z,69.68
2019-03-17T20:33:54.768Z,69.69
2019-03-17T20:35:58.498Z,69.64
2019-03-17T20:38:02.343Z,69.39
2019-03-17T20:40:06.622Z,69.46
2019-03-17T20:42:10.333Z,69.45
2019-03-17T20:44:14.172Z,69.36
2019-03-17T20:46:17.882Z,69.25
2019-03-17T20:48:21.788Z,69.27
2019-03-17T20:50:25.491Z,69.13
2019-03-17T20:52:29.332Z,69.10
2019-03-17T20:54:33.071Z,69.11
2019-03-17T20:56:36.777Z,69.13
2019-03-17T20:58:40.476Z,69.18
2019-03-17T21:00:44.236Z,69.13
2019-03-17T21:02:48.011Z,69.37
2019-03-17T21:04:51.751Z,69.26
2019-03-17T21:06:55.748Z,69.40
2019-03-17T21:08:59.447Z,69.24
2019-03-17T21:11:03.343Z,69.06
2019-03-17T21:13:07.055Z,69.02
2019-03-17T21:15:11.574Z,68.96
2019-03-17T21:17:15.258Z,69.15
2019-03-17T21:19:19.087Z,69.31
2019-03-17T21:21:22.863Z,69.37
2019-03-17T21:23:26.649Z,69.22
2019-03-17T21:25:30.373Z,69.28
2019-03-17T21:27:34.092Z,69.35
2019-03-17T21:29:37.823Z,69.34
2019-03-17T21:31:41.561Z,69.23
2019-03-17T21:33:45.284Z,69.44
2019-03-17T21:35:49.037Z,69.39
2019-03-17T21:37:52.900Z,69.42
2019-03-17T21:39:56.632Z,69.46
2019-03-17T21:42:00.407Z,69.54
2019-03-17T21:44:04.373Z,69.67
2019-03-17T21:46:08.183Z,69.77
2019-03-17T21:48:11.904Z,69.85
2019-03-17T21:50:16.120Z,70.02
2019-03-17T21:52:19.801Z,70.25
2019-03-17T21:54:23.529Z,70.68
2019-03-17T21:56:27.354Z,70.86
2019-03-17T21:58:31.057Z,70.92
2019-03-17T22:00:34.780Z,71.26
2019-03-17T22:02:38.476Z,71.52
2019-03-17T22:04:42.300Z,71.71
2019-03-17T22:06:46.003Z,71.91
2019-03-17T22:08:49.711Z,72.08
2019-03-17T22:10:53.521Z,72.16
2019-03-17T22:12:57.294Z,72.22
2019-03-17T22:15:01.019Z,72.45
2019-03-17T22:17:04.733Z,72.54
2019-03-17T22:19:08.434Z,72.46
2019-03-17T22:21:12.270Z,72.52
2019-03-17T22:23:15.970Z,72.52
2019-03-17T22:25:19.701Z,72.61
2019-03-17T22:27:23.397Z,72.67
2019-03-17T22:29:27.083Z,72.63
2019-03-17T22:31:30.951Z,72.67
2019-03-17T22:33:34.733Z,72.53
2019-03-17T22:35:38.484Z,72.50
2019-03-17T22:37:42.434Z,72.59
2019-03-17T22:39:46.192Z,72.39
2019-03-17T22:41:50.079Z,72.18
2019-03-17T22:43:53.899Z,72.21
2019-03-17T22:45:57.736Z,72.20
2019-03-17T22:48:01.639Z,72.11
2019-03-17T22:50:05.909Z,72.14
2019-03-17T22:52:09.606Z,72.22
2019-03-17T22:54:13.308Z,72.19
2019-03-17T22:56:17.061Z,72.11
2019-03-17T22:58:20.763Z,72.14
2019-03-17T23:00:38.266Z,72.12
2019-03-17T23:02:41.964Z,72.07
2019-03-17T23:04:45.659Z,72.06
2019-03-17T23:06:49.418Z,72.11
2019-03-17T23:08:53.183Z,72.26
2019-03-17T23:10:56.916Z,72.27
2019-03-17T23:13:00.611Z,72.35
2019-03-17T23:15:04.621Z,72.50
2019-03-17T23:17:08.446Z,72.63
2019-03-17T23:19:12.176Z,72.71
2019-03-17T23:21:16.061Z,72.76
2019-03-17T23:23:19.758Z,72.63
2019-03-17T23:25:23.643Z,72.11
2019-03-17T23:27:27.370Z,71.86
2019-03-17T23:29:31.075Z,71.68
2019-03-17T23:31:34.907Z,71.43
2019-03-17T23:33:38.710Z,71.43
2019-03-17T23:35:42.403Z,71.33
2019-03-17T23:37:46.171Z,71.31
2019-03-17T23:39:49.998Z,71.30
2019-03-17T23:41:53.710Z,71.39
2019-03-17T23:43:57.441Z,71.34
2019-03-17T23:46:01.151Z,71.26
2019-03-17T23:48:04.962Z,71.24
2019-03-17T23:50:08.852Z,71.11
2019-03-17T23:52:12.559Z,71.27
2019-03-17T23:54:16.412Z,71.83
2019-03-17T23:56:20.103Z,73.32
2019-03-17T23:58:23.952Z,74.06
